createdAt,value
2023-04-26T00:00:43.035Z,6.03
2023-04-26T00:03:10.371Z,7.07
2023-04-26T00:08:04.881Z,7.57
2023-04-26T00:10:31.630Z,5.68
2023-04-26T00:12:58.116Z,8.18
2023-04-26T00:15:24.602Z,5.88
2023-04-26T00:17:51.692Z,7.40
2023-04-26T00:20:18.260Z,7.65
2023-04-26T00:22:44.769Z,7.25
2023-04-26T00:25:11.360Z,7.97
2023-04-26T00:27:37.840Z,7.55
2023-04-26T00:30:04.652Z,7.35
2023-04-26T00:32:32.085Z,7.47
2023-04-26T00:34:58.585Z,7.28
2023-04-26T00:37:25.102Z,7.97
2023-04-26T00:39:51.636Z,7.80
2023-04-26T00:42:19.445Z,6.55
2023-04-26T00:44:46.078Z,7.28
2023-04-26T00:47:12.673Z,7.90
2023-04-26T00:49:39.250Z,6.22
2023-04-26T00:52:05.867Z,6.95
2023-04-26T00:54:32.489Z,7.85
2023-04-26T00:56:59.604Z,8.68
2023-04-26T00:59:26.332Z,9.10
2023-04-26T01:01:52.921Z,7.53
2023-04-26T01:04:19.514Z,8.57
2023-04-26T01:06:46.325Z,6.10
2023-04-26T01:09:15.505Z,7.15
2023-04-26T01:11:43.692Z,9.13
2023-04-26T01:14:10.908Z,7.38
2023-04-26T01:16:38.523Z,8.35
2023-04-26T01:19:12.973Z,7.43
2023-04-26T01:21:40.243Z,7.13
2023-04-26T01:24:06.969Z,7.45
2023-04-26T01:26:33.523Z,7.57
2023-04-26T01:28:59.960Z,9.98
2023-04-26T01:31:26.495Z,8.77
2023-04-26T01:33:52.999Z,6.05
2023-04-26T01:36:19.476Z,6.32
2023-04-26T01:38:46.013Z,7.82
2023-04-26T01:41:12.476Z,7.15
2023-04-26T01:43:38.971Z,6.68
2023-04-26T01:46:05.535Z,7.88
2023-04-26T01:48:31.951Z,6.68
2023-04-26T01:51:00.864Z,6.90
2023-04-26T01:53:27.341Z,8.45
2023-04-26T01:55:55.614Z,7.22
2023-04-26T01:58:22.222Z,6.63
2023-04-26T02:00:49.252Z,7.95
2023-04-26T02:03:15.875Z,6.80
2023-04-26T02:05:42.538Z,9.13
2023-04-26T02:08:08.980Z,9.20
2023-04-26T02:10:35.664Z,7.53
2023-04-26T02:13:02.192Z,7.60
2023-04-26T02:15:29.130Z,5.85
2023-04-26T02:17:55.946Z,8.07
2023-04-26T02:20:22.557Z,8.95
2023-04-26T02:22:49.056Z,6.70
2023-04-26T02:25:15.749Z,9.68
2023-04-26T02:27:42.280Z,8.20
2023-04-26T02:30:09.323Z,9.00
2023-04-26T02:32:36.659Z,9.02
2023-04-26T02:35:03.245Z,8.55
2023-04-26T02:37:29.696Z,9.88
2023-04-26T02:39:56.244Z,9.27
2023-04-26T02:42:22.861Z,9.18
2023-04-26T02:44:49.386Z,7.40
2023-04-26T02:47:16.674Z,8.63
2023-04-26T02:49:43.237Z,7.68
2023-04-26T02:52:09.758Z,7.82
2023-04-26T02:54:37.452Z,7.22
2023-04-26T02:57:04.308Z,8.45
2023-04-26T02:59:31.013Z,7.82
2023-04-26T03:01:57.749Z,8.63
2023-04-26T03:04:24.725Z,8.85
2023-04-26T03:06:51.193Z,9.05
2023-04-26T03:09:17.895Z,6.03
2023-04-26T03:11:44.798Z,7.78
2023-04-26T03:14:11.393Z,7.45
2023-04-26T03:16:42.405Z,7.68
2023-04-26T03:19:09.303Z,9.38
2023-04-26T03:21:37.504Z,9.15
2023-04-26T03:24:04.322Z,8.30
2023-04-26T03:26:30.867Z,8.30
2023-04-26T03:28:57.385Z,8.13
2023-04-26T03:31:24.522Z,8.02
2023-04-26T03:33:51.666Z,6.65
2023-04-26T03:36:18.180Z,8.23
2023-04-26T03:38:44.656Z,7.88
2023-04-26T03:41:12.739Z,9.00
2023-04-26T03:43:39.203Z,8.40
2023-04-26T03:46:05.794Z,8.32
2023-04-26T03:48:32.942Z,6.55
2023-04-26T03:50:59.677Z,9.25
2023-04-26T03:53:27.725Z,7.93
2023-04-26T03:55:54.205Z,8.55
2023-04-26T03:58:20.701Z,7.90
2023-04-26T04:00:47.337Z,8.20
2023-04-26T04:03:14.086Z,8.00
2023-04-26T04:05:40.863Z,6.65
2023-04-26T04:08:07.767Z,7.93
2023-04-26T04:10:34.960Z,7.68
2023-04-26T04:13:01.510Z,8.98
2023-04-26T04:15:28.131Z,8.25
2023-04-26T04:17:54.882Z,8.48
2023-04-26T04:20:21.513Z,7.95
2023-04-26T04:22:48.144Z,8.77
2023-04-26T04:25:16.378Z,9.13
2023-04-26T04:27:43.506Z,7.20
2023-04-26T04:30:10.595Z,9.48
2023-04-26T04:32:38.052Z,12.13
2023-04-26T04:37:34.864Z,13.43
2023-04-26T04:40:01.483Z,11.80
2023-04-26T04:42:30.808Z,9.32
2023-04-26T04:44:59.530Z,10.45
2023-04-26T04:47:27.288Z,9.27
2023-04-26T04:49:53.889Z,8.80
2023-04-26T04:52:23.430Z,9.63
2023-04-26T04:54:50.009Z,8.23
2023-04-26T04:57:16.923Z,8.38
2023-04-26T04:59:45.045Z,8.63
2023-04-26T05:02:11.710Z,9.82
2023-04-26T05:04:38.615Z,8.45
2023-04-26T05:07:06.688Z,9.07
2023-04-26T05:09:34.224Z,8.50
2023-04-26T05:12:01.290Z,9.18
2023-04-26T05:14:29.759Z,7.63
2023-04-26T05:16:56.641Z,8.98
2023-04-26T05:19:23.236Z,9.52
2023-04-26T05:21:49.700Z,9.50
2023-04-26T05:24:17.022Z,10.13
2023-04-26T05:26:43.803Z,10.07
2023-04-26T05:29:31.080Z,8.05
2023-04-26T05:32:14.563Z,8.07
2023-04-26T05:35:10.518Z,8.20
2023-04-26T05:37:37.012Z,8.13
2023-04-26T05:40:04.693Z,9.60
2023-04-26T05:42:31.350Z,8.77
2023-04-26T05:44:58.899Z,10.02
2023-04-26T05:47:25.948Z,9.27
2023-04-26T05:49:52.885Z,7.88
2023-04-26T05:52:20.358Z,9.07
2023-04-26T05:54:47.001Z,9.02
2023-04-26T05:57:13.487Z,8.60
2023-04-26T05:59:40.290Z,9.35
2023-04-26T06:02:07.023Z,8.95
2023-04-26T06:04:33.618Z,8.23
2023-04-26T06:07:04.816Z,7.07
2023-04-26T06:09:31.797Z,8.15
2023-04-26T06:11:58.440Z,9.15
2023-04-26T06:14:30.506Z,9.48
2023-04-26T06:17:02.091Z,6.32
2023-04-26T06:19:28.817Z,6.40
2023-04-26T06:21:57.183Z,5.95
2023-04-26T06:24:27.235Z,6.95
2023-04-26T06:26:53.787Z,8.07
2023-04-26T06:29:21.418Z,8.15
2023-04-26T06:31:48.134Z,7.60
2023-04-26T06:34:14.666Z,7.43
2023-04-26T06:36:41.330Z,7.70
2023-04-26T06:39:08.283Z,6.95
2023-04-26T06:41:34.916Z,6.38
2023-04-26T06:44:01.414Z,6.53
2023-04-26T06:46:31.019Z,8.07
2023-04-26T06:48:57.608Z,8.63
2023-04-26T06:51:25.072Z,7.68
2023-04-26T06:53:52.604Z,6.93
2023-04-26T06:56:19.334Z,5.72
2023-04-26T06:59:02.576Z,10.85
2023-04-26T07:01:29.556Z,8.02
2023-04-26T07:03:57.828Z,7.00
2023-04-26T07:06:25.438Z,6.63
2023-04-26T07:08:52.242Z,6.57
2023-04-26T07:11:19.556Z,9.32
2023-04-26T07:13:46.059Z,7.13
2023-04-26T07:16:12.636Z,6.43
2023-04-26T07:18:42.185Z,6.65
2023-04-26T07:21:08.892Z,6.60
2023-04-26T07:23:35.528Z,5.85
2023-04-26T07:26:04.217Z,7.07
2023-04-26T07:28:31.580Z,5.78
2023-04-26T07:33:24.540Z,5.78
2023-04-26T07:35:56.245Z,7.35
2023-04-26T07:38:23.251Z,7.65
2023-04-26T07:40:50.563Z,7.10
2023-04-26T07:45:43.774Z,7.82
2023-04-26T07:48:10.330Z,8.90
2023-04-26T07:50:36.900Z,4.60
2023-04-26T07:53:03.497Z,4.82
2023-04-26T07:55:30.182Z,3.90
2023-04-26T07:57:56.755Z,4.82
2023-04-26T08:00:23.683Z,4.93
2023-04-26T08:02:50.212Z,4.00
2023-04-26T08:05:17.205Z,4.00
2023-04-26T08:07:43.842Z,3.10
2023-04-26T08:10:11.049Z,3.63
2023-04-26T08:15:05.242Z,4.95
2023-04-26T08:17:32.261Z,3.05
2023-04-26T08:19:59.061Z,5.25
2023-04-26T08:22:25.645Z,5.32
2023-04-26T08:24:54.582Z,3.10
2023-04-26T08:27:21.111Z,3.67
2023-04-26T08:29:47.627Z,2.35
2023-04-26T08:32:14.137Z,2.90
2023-04-26T08:34:40.955Z,6.68
2023-04-26T08:37:07.529Z,3.20
2023-04-26T08:39:34.220Z,2.38
2023-04-26T08:42:12.903Z,2.55
2023-04-26T08:44:40.559Z,2.67
2023-04-26T08:47:09.834Z,3.05
2023-04-26T08:49:41.467Z,5.13
2023-04-26T08:52:09.223Z,3.80
2023-04-26T08:54:36.713Z,3.63
2023-04-26T08:57:03.862Z,1.98
2023-04-26T09:01:58.300Z,2.75
2023-04-26T09:04:25.008Z,3.13
2023-04-26T09:06:53.409Z,2.67
2023-04-26T09:09:21.039Z,3.00
2023-04-26T09:11:57.973Z,3.47
2023-04-26T09:14:24.750Z,2.45
2023-04-26T09:16:52.319Z,3.22
2023-04-26T09:19:37.448Z,3.50
2023-04-26T09:24:47.561Z,3.65
2023-04-26T09:27:16.497Z,3.58
2023-04-26T09:30:01.685Z,2.38
2023-04-26T09:32:42.949Z,2.90
2023-04-26T09:35:18.176Z,2.30
2023-04-26T09:37:59.150Z,4.38
2023-04-26T09:40:29.317Z,3.72
2023-04-26T09:42:58.892Z,4.05
2023-04-26T09:45:26.366Z,3.97
2023-04-26T09:47:53.212Z,1.83
2023-04-26T09:50:27.209Z,3.35
2023-04-26T09:52:53.710Z,3.10
2023-04-26T09:55:34.971Z,2.00
2023-04-26T09:58:08.114Z,3.20
2023-04-26T10:00:34.945Z,5.07
2023-04-26T10:03:02.205Z,2.80
2023-04-26T10:05:31.002Z,3.60
2023-04-26T10:07:58.258Z,2.42
2023-04-26T10:10:24.866Z,2.92
2023-04-26T10:12:51.287Z,2.40
2023-04-26T10:15:18.560Z,2.10
2023-04-26T10:17:45.911Z,2.45
2023-04-26T10:20:14.438Z,2.42
2023-04-26T10:22:46.422Z,2.08
2023-04-26T10:25:13.230Z,3.20
2023-04-26T10:27:42.879Z,6.90
2023-04-26T10:30:10.560Z,2.38
2023-04-26T10:32:53.056Z,3.05
2023-04-26T10:35:20.138Z,2.22
2023-04-26T10:38:01.888Z,2.30
2023-04-26T10:40:32.050Z,2.67
2023-04-26T10:43:17.125Z,2.78
2023-04-26T10:45:44.517Z,4.05
2023-04-26T10:48:13.917Z,5.55
2023-04-26T10:50:59.273Z,3.45
2023-04-26T10:53:25.903Z,4.40
2023-04-26T10:55:52.320Z,2.47
2023-04-26T10:58:28.854Z,2.75
2023-04-26T11:01:13.965Z,2.60
2023-04-26T11:03:40.931Z,3.47
2023-04-26T11:08:36.453Z,1.95
2023-04-26T11:11:11.264Z,3.58
2023-04-26T11:13:38.849Z,1.77
2023-04-26T11:16:09.344Z,2.60
2023-04-26T11:18:37.104Z,2.40
2023-04-26T11:21:04.865Z,1.98
2023-04-26T11:23:32.028Z,2.28
2023-04-26T11:26:05.849Z,2.28
2023-04-26T11:28:34.293Z,2.38
2023-04-26T11:31:02.034Z,3.97
2023-04-26T11:33:28.566Z,3.28
2023-04-26T11:35:55.767Z,2.38
2023-04-26T11:38:22.745Z,4.18
2023-04-26T11:40:59.315Z,1.35
2023-04-26T11:43:39.071Z,1.95
2023-04-26T11:46:06.763Z,1.83
2023-04-26T11:48:34.486Z,2.15
2023-04-26T11:51:02.520Z,3.40
2023-04-26T11:53:36.607Z,2.92
2023-04-26T11:56:03.920Z,1.70
2023-04-26T11:58:30.412Z,1.63
2023-04-26T12:00:58.014Z,3.25
2023-04-26T12:03:31.625Z,5.40
2023-04-26T12:05:58.324Z,4.80
2023-04-26T12:08:26.055Z,4.05
2023-04-26T12:10:52.591Z,7.93
2023-04-26T12:13:19.392Z,5.18
2023-04-26T12:15:46.724Z,6.40
2023-04-26T12:20:40.999Z,5.03
2023-04-26T12:23:08.704Z,3.03
2023-04-26T12:25:36.783Z,6.88
2023-04-26T12:28:04.361Z,5.40
2023-04-26T12:30:31.486Z,3.92
2023-04-26T12:33:16.343Z,4.97
2023-04-26T12:35:44.064Z,3.22
2023-04-26T12:38:10.894Z,5.60
2023-04-26T12:40:37.724Z,5.38
2023-04-26T12:43:04.238Z,7.57
2023-04-26T12:45:30.933Z,3.92
2023-04-26T12:47:57.490Z,5.45
2023-04-26T12:50:24.162Z,4.20
2023-04-26T12:52:50.705Z,2.05
2023-04-26T12:55:17.481Z,2.05
2023-04-26T12:57:44.884Z,2.05
2023-04-26T13:00:12.787Z,2.85
2023-04-26T13:02:39.767Z,3.00
2023-04-26T13:05:06.863Z,4.65
2023-04-26T13:07:34.316Z,4.13
2023-04-26T13:10:01.432Z,5.28
2023-04-26T13:12:28.301Z,4.55
2023-04-26T13:14:55.168Z,1.90
2023-04-26T13:17:23.338Z,5.15
2023-04-26T13:19:49.868Z,2.97
2023-04-26T13:22:16.554Z,2.35
2023-04-26T13:24:43.070Z,3.50
2023-04-26T13:27:09.926Z,2.50
2023-04-26T13:29:36.589Z,1.63
2023-04-26T13:32:03.743Z,1.90
2023-04-26T13:34:30.798Z,3.75
2023-04-26T13:36:57.859Z,3.55
2023-04-26T13:39:24.959Z,1.90
2023-04-26T13:41:51.543Z,2.47
2023-04-26T13:44:19.813Z,1.65
2023-04-26T13:46:47.134Z,2.33
2023-04-26T13:51:41.764Z,1.15
2023-04-26T13:54:08.572Z,2.60
2023-04-26T13:56:37.295Z,2.63
2023-04-26T13:59:07.262Z,2.50
2023-04-26T14:01:34.431Z,2.25
2023-04-26T14:04:01.284Z,2.72
2023-04-26T14:06:28.875Z,2.35
2023-04-26T14:08:55.518Z,3.30
2023-04-26T14:11:22.021Z,1.77
2023-04-26T14:13:48.792Z,3.58
2023-04-26T14:16:15.418Z,2.15
2023-04-26T14:18:45.052Z,1.88
2023-04-26T14:21:12.760Z,2.67
2023-04-26T14:23:42.591Z,1.63
2023-04-26T14:26:09.629Z,2.58
2023-04-26T14:28:36.553Z,1.95
2023-04-26T14:31:03.192Z,2.70
2023-04-26T14:33:30.695Z,2.30
2023-04-26T14:35:57.184Z,1.83
2023-04-26T14:38:23.752Z,1.35
2023-04-26T14:40:50.291Z,2.42
2023-04-26T14:43:16.920Z,2.33
2023-04-26T14:45:44.902Z,1.75
2023-04-26T14:48:14.838Z,1.38
2023-04-26T14:50:41.904Z,2.40
2023-04-26T14:53:08.711Z,1.58
2023-04-26T14:55:35.693Z,1.88
2023-04-26T14:58:02.444Z,2.45
2023-04-26T15:00:30.361Z,1.95
2023-04-26T15:02:57.072Z,2.70
2023-04-26T15:05:24.276Z,1.95
2023-04-26T15:07:51.988Z,2.78
2023-04-26T15:10:18.696Z,1.85
2023-04-26T15:12:45.983Z,2.50
2023-04-26T15:15:12.573Z,2.17
2023-04-26T15:17:39.137Z,2.33
2023-04-26T15:20:06.467Z,1.52
2023-04-26T15:22:35.322Z,2.15
2023-04-26T15:25:04.138Z,2.10
2023-04-26T15:27:30.621Z,3.05
2023-04-26T15:29:57.284Z,1.35
2023-04-26T15:32:23.882Z,2.00
2023-04-26T15:34:50.548Z,8.05
2023-04-26T15:37:17.152Z,7.43
2023-04-26T15:39:43.737Z,5.72
2023-04-26T15:42:11.189Z,6.47
2023-04-26T15:44:37.745Z,6.15
2023-04-26T15:47:04.249Z,7.40
2023-04-26T15:49:30.982Z,6.32
2023-04-26T15:51:57.457Z,6.05
2023-04-26T15:54:24.102Z,5.38
2023-04-26T15:56:50.601Z,4.78
2023-04-26T15:59:17.110Z,4.50
2023-04-26T16:01:43.717Z,5.97
2023-04-26T16:04:10.687Z,3.95
2023-04-26T16:06:37.380Z,5.75
2023-04-26T16:09:17.166Z,3.85
2023-04-26T16:11:51.274Z,5.57
2023-04-26T16:14:17.846Z,3.78
2023-04-26T16:16:46.050Z,5.18
2023-04-26T16:19:12.710Z,3.60
2023-04-26T16:21:40.307Z,3.05
2023-04-26T16:24:09.192Z,4.40
2023-04-26T16:26:36.147Z,5.03
2023-04-26T16:29:04.260Z,3.22
2023-04-26T16:31:31.966Z,3.65
2023-04-26T16:33:58.760Z,4.30
2023-04-26T16:36:25.476Z,4.85
2023-04-26T16:38:51.940Z,3.72
2023-04-26T16:41:18.510Z,4.20
2023-04-26T16:43:45.815Z,3.38
2023-04-26T16:48:39.206Z,3.60
2023-04-26T16:51:07.620Z,3.50
2023-04-26T16:53:34.797Z,4.28
2023-04-26T16:56:01.346Z,3.70
2023-04-26T16:58:28.183Z,4.43
2023-04-26T17:00:54.722Z,2.33
2023-04-26T17:03:21.843Z,4.95
2023-04-26T17:05:48.744Z,3.13
2023-04-26T17:08:18.962Z,3.47
2023-04-26T17:10:45.984Z,5.00
2023-04-26T17:13:15.352Z,2.30
2023-04-26T17:15:43.432Z,5.05
2023-04-26T17:18:10.304Z,5.38
2023-04-26T17:20:37.190Z,4.10
2023-04-26T17:23:08.165Z,4.55
2023-04-26T17:25:34.674Z,3.38
2023-04-26T17:28:01.305Z,3.90
2023-04-26T17:30:28.157Z,4.28
2023-04-26T17:32:54.737Z,4.65
2023-04-26T17:35:21.249Z,5.55
2023-04-26T17:37:50.264Z,2.97
2023-04-26T17:40:18.240Z,2.75
2023-04-26T17:42:45.860Z,2.80
2023-04-26T17:45:14.200Z,3.67
2023-04-26T17:47:41.535Z,4.13
2023-04-26T17:50:08.910Z,3.33
2023-04-26T17:52:35.550Z,3.22
2023-04-26T17:55:02.071Z,3.10
2023-04-26T17:57:28.627Z,5.30
2023-04-26T17:59:55.060Z,2.38
2023-04-26T18:02:21.656Z,2.80
2023-04-26T18:04:48.518Z,4.18
2023-04-26T18:07:15.194Z,4.55
2023-04-26T18:09:41.892Z,3.45
2023-04-26T18:12:08.876Z,2.72
2023-04-26T18:14:35.465Z,4.13
2023-04-26T18:17:04.104Z,2.40
2023-04-26T18:19:30.872Z,2.88
2023-04-26T18:21:57.441Z,2.67
2023-04-26T18:24:24.007Z,3.42
2023-04-26T18:26:50.669Z,1.95
2023-04-26T18:29:17.223Z,3.10
2023-04-26T18:31:43.895Z,3.17
2023-04-26T18:34:11.456Z,3.47
2023-04-26T18:36:38.202Z,3.58
2023-04-26T18:39:04.783Z,2.78
2023-04-26T18:41:31.308Z,2.55
2023-04-26T18:43:58.098Z,3.97
2023-04-26T18:46:24.657Z,3.40
2023-04-26T18:48:51.238Z,2.05
2023-04-26T18:51:17.892Z,3.35
2023-04-26T18:53:44.550Z,2.05
2023-04-26T18:56:11.067Z,2.83
2023-04-26T18:58:37.562Z,2.10
2023-04-26T19:01:04.080Z,3.83
2023-04-26T19:03:30.770Z,1.95
2023-04-26T19:05:57.382Z,2.28
2023-04-26T19:08:25.378Z,2.67
2023-04-26T19:10:52.012Z,3.08
2023-04-26T19:13:19.085Z,2.83
2023-04-26T19:15:46.137Z,4.88
2023-04-26T19:18:12.661Z,2.38
2023-04-26T19:20:39.270Z,2.88
2023-04-26T19:23:06.242Z,2.42
2023-04-26T19:25:32.787Z,3.00
2023-04-26T19:27:59.484Z,2.88
2023-04-26T19:30:26.162Z,3.35
2023-04-26T19:32:52.798Z,2.53
2023-04-26T19:35:19.396Z,2.95
2023-04-26T19:37:46.082Z,2.67
2023-04-26T19:40:13.012Z,2.30
2023-04-26T19:42:39.611Z,3.15
2023-04-26T19:45:07.012Z,3.08
2023-04-26T19:47:33.683Z,2.50
2023-04-26T19:50:00.255Z,3.80
2023-04-26T19:52:26.930Z,2.95
2023-04-26T19:54:54.350Z,3.33
2023-04-26T19:57:21.947Z,3.45
2023-04-26T19:59:48.420Z,3.92
2023-04-26T20:02:14.975Z,4.55
2023-04-26T20:04:41.797Z,2.78
2023-04-26T20:07:08.680Z,3.45
2023-04-26T20:09:35.958Z,2.67
2023-04-26T20:12:03.073Z,2.28
2023-04-26T20:14:30.519Z,3.00
2023-04-26T20:19:23.734Z,2.67
2023-04-26T20:21:50.263Z,3.63
2023-04-26T20:24:17.143Z,2.45
2023-04-26T20:26:44.035Z,3.40
2023-04-26T20:29:10.558Z,2.80
2023-04-26T20:31:37.511Z,2.97
2023-04-26T20:34:04.000Z,2.80
2023-04-26T20:36:30.432Z,4.82
2023-04-26T20:38:56.976Z,3.58
2023-04-26T20:41:23.416Z,4.38
2023-04-26T20:43:49.930Z,4.45
2023-04-26T20:46:16.578Z,4.22
2023-04-26T20:48:43.559Z,4.53
2023-04-26T20:51:10.004Z,4.85
2023-04-26T20:53:36.710Z,4.90
2023-04-26T20:56:03.643Z,5.55
2023-04-26T20:58:30.503Z,4.68
2023-04-26T21:00:57.660Z,4.72
2023-04-26T21:03:24.843Z,5.32
2023-04-26T21:05:51.370Z,4.55
2023-04-26T21:08:17.870Z,5.10
2023-04-26T21:10:44.306Z,5.85
2023-04-26T21:13:10.785Z,3.78
2023-04-26T21:15:37.374Z,3.47
2023-04-26T21:18:04.056Z,5.03
2023-04-26T21:20:30.675Z,4.78
2023-04-26T21:22:58.616Z,4.85
2023-04-26T21:25:25.101Z,5.13
2023-04-26T21:27:51.757Z,5.15
2023-04-26T21:30:18.317Z,4.43
2023-04-26T21:32:44.777Z,5.75
2023-04-26T21:35:11.306Z,5.53
2023-04-26T21:37:38.003Z,6.00
2023-04-26T21:40:05.016Z,5.10
2023-04-26T21:42:31.581Z,3.90
2023-04-26T21:44:58.080Z,3.95
2023-04-26T21:47:24.631Z,7.97
2023-04-26T21:49:51.516Z,11.13
2023-04-26T21:52:19.078Z,6.05
2023-04-26T21:54:45.780Z,6.10
2023-04-26T21:57:12.287Z,8.25
2023-04-26T21:59:42.341Z,7.15
2023-04-26T22:02:09.025Z,5.63
2023-04-26T22:04:35.665Z,5.28
2023-04-26T22:07:02.180Z,9.20
2023-04-26T22:09:28.694Z,21.50
2023-04-26T22:11:55.140Z,9.13
2023-04-26T22:14:21.688Z,6.18
2023-04-26T22:16:48.279Z,6.60
2023-04-26T22:19:14.884Z,7.30
2023-04-26T22:21:41.430Z,5.43
2023-04-26T22:24:08.242Z,8.15
2023-04-26T22:26:34.744Z,7.65
2023-04-26T22:29:01.227Z,6.38
2023-04-26T22:31:27.752Z,5.65
2023-04-26T22:33:54.776Z,10.18
2023-04-26T22:36:21.157Z,9.77
2023-04-26T22:38:47.548Z,10.65
2023-04-26T22:41:13.980Z,9.38
2023-04-26T22:43:41.582Z,9.90
2023-04-26T22:46:08.278Z,9.25
2023-04-26T22:48:34.761Z,9.85
2023-04-26T22:51:01.405Z,9.75
2023-04-26T22:53:27.870Z,8.55
2023-04-26T22:55:54.358Z,8.77
2023-04-26T22:58:21.233Z,12.25
2023-04-26T23:00:47.665Z,10.95
2023-04-26T23:03:14.273Z,7.95
2023-04-26T23:05:40.769Z,10.95
2023-04-26T23:08:07.375Z,8.10
2023-04-26T23:10:33.869Z,7.32
2023-04-26T23:13:00.396Z,5.82
2023-04-26T23:15:27.022Z,7.60
2023-04-26T23:17:53.986Z,9.45
2023-04-26T23:20:20.629Z,8.70
2023-04-26T23:22:47.055Z,6.75
2023-04-26T23:25:13.545Z,8.07
2023-04-26T23:27:39.969Z,6.57
2023-04-26T23:30:07.102Z,8.10
2023-04-26T23:32:33.703Z,5.97
2023-04-26T23:35:00.570Z,10.57
2023-04-26T23:37:27.030Z,9.43
2023-04-26T23:39:53.574Z,7.95
2023-04-26T23:42:20.044Z,10.57
2023-04-26T23:44:46.829Z,6.68
2023-04-26T23:47:13.483Z,6.70
2023-04-26T23:49:39.936Z,9.73
2023-04-26T23:52:06.573Z,6.05
2023-04-26T23:54:33.173Z,7.55
2023-04-26T23:56:59.600Z,8.90
2023-04-26T23:59:26.093Z,6.38
